Terminal Aerodrome Forecast
Issued by NWS

Home | Current Version | Previous Version | Text Only | Print | Product List | Glossary On
Versions: 1 2 3 4 5 6 7 8 9 10 11 12 13 14 15 16 17 18 19
000
FTUS44 KTSA 251135
TAFXNA
TAF
KXNA 251135Z 2512/2612 VRB03KT 1SM BR BKN002
      TEMPO 2512/2514 1/4SM FZFG BKN001
     FM251600 18008KT P6SM SKC
     FM260100 VRB03KT P6SM SCT100=

USA.gov is the U.S. government's official web portal to all federal, state and local government web resources and services.